sensor_id;sensor_type;location;lat;lon;timestamp;P1;durP1;ratioP1;P2;durP2;ratioP2
24273;SDS011;12392;42.678;23.380;2023-06-10T00:00:13;10.10;;;5.45;;
24273;SDS011;12392;42.678;23.380;2023-06-10T00:02:41;7.15;;;5.05;;
24273;SDS011;12392;42.678;23.380;2023-06-10T00:05:07;7.20;;;4.80;;
24273;SDS011;12392;42.678;23.380;2023-06-10T00:07:34;8.50;;;5.15;;
24273;SDS011;12392;42.678;23.380;2023-06-10T00:10:07;11.25;;;5.18;;
24273;SDS011;12392;42.678;23.380;2023-06-10T00:12:33;8.52;;;4.78;;
24273;SDS011;12392;42.678;23.380;2023-06-10T00:15:05;8.10;;;5.60;;
24273;SDS011;12392;42.678;23.380;2023-06-10T00:17:31;9.90;;;5.10;;
24273;SDS011;12392;42.678;23.380;2023-06-10T00:19:58;11.75;;;6.05;;
24273;SDS011;12392;42.678;23.380;2023-06-10T00:22:23;10.05;;;6.03;;
24273;SDS011;12392;42.678;23.380;2023-06-10T00:24:54;8.35;;;5.22;;
24273;SDS011;12392;42.678;23.380;2023-06-10T00:27:21;6.45;;;5.38;;
24273;SDS011;12392;42.678;23.380;2023-06-10T00:29:47;7.10;;;5.88;;
24273;SDS011;12392;42.678;23.380;2023-06-10T00:32:13;8.25;;;5.88;;
24273;SDS011;12392;42.678;23.380;2023-06-10T00:34:38;7.95;;;6.20;;
24273;SDS011;12392;42.678;23.380;2023-06-10T00:37:04;8.63;;;6.55;;
24273;SDS011;12392;42.678;23.380;2023-06-10T00:39:30;10.48;;;7.13;;
24273;SDS011;12392;42.678;23.380;2023-06-10T00:41:56;9.80;;;6.38;;
24273;SDS011;12392;42.678;23.380;2023-06-10T00:44:21;11.57;;;6.25;;
24273;SDS011;12392;42.678;23.380;2023-06-10T00:46:47;9.93;;;6.60;;
24273;SDS011;12392;42.678;23.380;2023-06-10T00:49:16;11.65;;;6.22;;
24273;SDS011;12392;42.678;23.380;2023-06-10T00:51:41;11.77;;;6.97;;
24273;SDS011;12392;42.678;23.380;2023-06-10T00:54:07;15.55;;;7.43;;
24273;SDS011;12392;42.678;23.380;2023-06-10T00:56:33;8.57;;;6.22;;
24273;SDS011;12392;42.678;23.380;2023-06-10T00:59:00;10.40;;;6.35;;
24273;SDS011;12392;42.678;23.380;2023-06-10T01:01:25;10.02;;;6.75;;
24273;SDS011;12392;42.678;23.380;2023-06-10T01:03:51;10.25;;;5.65;;
24273;SDS011;12392;42.678;23.380;2023-06-10T01:06:35;9.77;;;5.75;;
24273;SDS011;12392;42.678;23.380;2023-06-10T01:09:31;8.07;;;6.13;;
24273;SDS011;12392;42.678;23.380;2023-06-10T01:12:12;11.35;;;6.22;;
24273;SDS011;12392;42.678;23.380;2023-06-10T01:14:49;6.50;;;5.68;;
24273;SDS011;12392;42.678;23.380;2023-06-10T01:17:16;6.78;;;5.35;;
24273;SDS011;12392;42.678;23.380;2023-06-10T01:19:43;9.00;;;6.13;;
24273;SDS011;12392;42.678;23.380;2023-06-10T01:22:09;12.45;;;6.75;;
24273;SDS011;12392;42.678;23.380;2023-06-10T01:24:36;7.63;;;6.18;;
24273;SDS011;12392;42.678;23.380;2023-06-10T01:27:03;12.90;;;6.47;;
24273;SDS011;12392;42.678;23.380;2023-06-10T01:29:40;9.88;;;6.93;;
24273;SDS011;12392;42.678;23.380;2023-06-10T01:32:21;12.57;;;7.20;;
24273;SDS011;12392;42.678;23.380;2023-06-10T01:35:08;10.75;;;6.45;;
24273;SDS011;12392;42.678;23.380;2023-06-10T01:37:34;10.75;;;6.57;;
24273;SDS011;12392;42.678;23.380;2023-06-10T01:40:02;7.88;;;6.13;;
24273;SDS011;12392;42.678;23.380;2023-06-10T01:42:31;10.38;;;6.60;;
24273;SDS011;12392;42.678;23.380;2023-06-10T01:44:57;10.18;;;6.38;;
24273;SDS011;12392;42.678;23.380;2023-06-10T01:47:23;8.07;;;6.28;;
24273;SDS011;12392;42.678;23.380;2023-06-10T01:49:49;9.10;;;7.10;;
24273;SDS011;12392;42.678;23.380;2023-06-10T01:52:14;8.52;;;6.55;;
24273;SDS011;12392;42.678;23.380;2023-06-10T01:54:40;10.10;;;6.15;;
24273;SDS011;12392;42.678;23.380;2023-06-10T01:57:06;10.20;;;5.90;;
24273;SDS011;12392;42.678;23.380;2023-06-10T01:59:31;9.48;;;7.30;;
24273;SDS011;12392;42.678;23.380;2023-06-10T02:01:57;8.15;;;6.35;;
24273;SDS011;12392;42.678;23.380;2023-06-10T02:04:23;8.27;;;6.50;;
24273;SDS011;12392;42.678;23.380;2023-06-10T02:06:48;11.93;;;7.18;;
24273;SDS011;12392;42.678;23.380;2023-06-10T02:09:15;9.27;;;6.68;;
24273;SDS011;12392;42.678;23.380;2023-06-10T02:11:41;9.90;;;6.88;;
24273;SDS011;12392;42.678;23.380;2023-06-10T02:14:06;9.27;;;7.28;;
24273;SDS011;12392;42.678;23.380;2023-06-10T02:16:32;10.60;;;6.82;;
24273;SDS011;12392;42.678;23.380;2023-06-10T02:18:58;10.82;;;7.10;;
24273;SDS011;12392;42.678;23.380;2023-06-10T02:21:25;7.90;;;6.85;;
24273;SDS011;12392;42.678;23.380;2023-06-10T02:23:51;12.88;;;7.18;;
24273;SDS011;12392;42.678;23.380;2023-06-10T02:26:16;12.10;;;7.03;;
24273;SDS011;12392;42.678;23.380;2023-06-10T02:28:42;11.68;;;7.05;;
24273;SDS011;12392;42.678;23.380;2023-06-10T02:31:08;9.68;;;6.45;;
24273;SDS011;12392;42.678;23.380;2023-06-10T02:33:34;11.35;;;7.32;;
24273;SDS011;12392;42.678;23.380;2023-06-10T02:36:00;10.02;;;7.57;;
24273;SDS011;12392;42.678;23.380;2023-06-10T02:38:25;7.82;;;6.80;;
24273;SDS011;12392;42.678;23.380;2023-06-10T02:40:51;11.20;;;7.53;;
24273;SDS011;12392;42.678;23.380;2023-06-10T02:43:16;9.55;;;7.22;;
24273;SDS011;12392;42.678;23.380;2023-06-10T02:45:42;12.27;;;7.15;;
24273;SDS011;12392;42.678;23.380;2023-06-10T02:48:08;7.03;;;5.85;;
24273;SDS011;12392;42.678;23.380;2023-06-10T02:50:33;12.90;;;6.53;;
24273;SDS011;12392;42.678;23.380;2023-06-10T02:52:59;9.55;;;6.30;;
24273;SDS011;12392;42.678;23.380;2023-06-10T02:55:25;8.32;;;6.57;;
24273;SDS011;12392;42.678;23.380;2023-06-10T02:57:51;10.25;;;6.72;;
24273;SDS011;12392;42.678;23.380;2023-06-10T03:00:19;12.13;;;6.50;;
24273;SDS011;12392;42.678;23.380;2023-06-10T03:02:46;10.50;;;6.10;;
24273;SDS011;12392;42.678;23.380;2023-06-10T03:05:12;10.35;;;6.25;;
24273;SDS011;12392;42.678;23.380;2023-06-10T03:07:38;9.73;;;6.90;;
24273;SDS011;12392;42.678;23.380;2023-06-10T03:10:04;9.25;;;6.88;;
24273;SDS011;12392;42.678;23.380;2023-06-10T03:12:31;11.95;;;6.30;;
24273;SDS011;12392;42.678;23.380;2023-06-10T03:14:57;10.18;;;6.78;;
24273;SDS011;12392;42.678;23.380;2023-06-10T03:17:23;12.35;;;6.25;;
24273;SDS011;12392;42.678;23.380;2023-06-10T03:19:49;10.35;;;6.75;;
24273;SDS011;12392;42.678;23.380;2023-06-10T03:22:15;12.82;;;7.35;;
24273;SDS011;12392;42.678;23.380;2023-06-10T03:24:41;12.38;;;6.53;;
24273;SDS011;12392;42.678;23.380;2023-06-10T03:27:09;12.50;;;6.22;;
24273;SDS011;12392;42.678;23.380;2023-06-10T03:29:36;10.18;;;7.00;;
24273;SDS011;12392;42.678;23.380;2023-06-10T03:32:02;7.43;;;6.45;;
24273;SDS011;12392;42.678;23.380;2023-06-10T03:34:29;8.82;;;6.45;;
24273;SDS011;12392;42.678;23.380;2023-06-10T03:36:55;7.18;;;5.40;;
24273;SDS011;12392;42.678;23.380;2023-06-10T03:39:21;11.10;;;6.30;;
24273;SDS011;12392;42.678;23.380;2023-06-10T03:41:48;17.20;;;7.78;;
24273;SDS011;12392;42.678;23.380;2023-06-10T03:44:14;13.38;;;8.30;;
24273;SDS011;12392;42.678;23.380;2023-06-10T03:46:40;9.02;;;7.22;;
24273;SDS011;12392;42.678;23.380;2023-06-10T03:49:06;8.45;;;6.30;;
24273;SDS011;12392;42.678;23.380;2023-06-10T03:51:32;11.27;;;6.43;;
24273;SDS011;12392;42.678;23.380;2023-06-10T03:53:57;10.75;;;6.57;;
24273;SDS011;12392;42.678;23.380;2023-06-10T03:56:23;9.02;;;6.28;;
24273;SDS011;12392;42.678;23.380;2023-06-10T03:58:49;9.35;;;6.60;;
24273;SDS011;12392;42.678;23.380;2023-06-10T04:01:14;13.07;;;5.60;;
24273;SDS011;12392;42.678;23.380;2023-06-10T04:03:40;9.13;;;5.97;;
24273;SDS011;12392;42.678;23.380;2023-06-10T04:06:07;8.65;;;6.18;;
24273;SDS011;12392;42.678;23.380;2023-06-10T04:08:33;9.18;;;6.00;;
24273;SDS011;12392;42.678;23.380;2023-06-10T04:10:58;10.65;;;7.32;;
24273;SDS011;12392;42.678;23.380;2023-06-10T04:13:24;14.57;;;6.20;;
24273;SDS011;12392;42.678;23.380;2023-06-10T04:15:50;9.90;;;6.38;;
24273;SDS011;12392;42.678;23.380;2023-06-10T04:18:16;7.10;;;5.90;;
24273;SDS011;12392;42.678;23.380;2023-06-10T04:20:41;13.02;;;6.35;;
24273;SDS011;12392;42.678;23.380;2023-06-10T04:23:07;9.93;;;6.05;;
24273;SDS011;12392;42.678;23.380;2023-06-10T04:25:33;8.82;;;5.57;;
24273;SDS011;12392;42.678;23.380;2023-06-10T04:27:59;7.38;;;5.97;;
24273;SDS011;12392;42.678;23.380;2023-06-10T04:30:25;9.15;;;5.40;;
24273;SDS011;12392;42.678;23.380;2023-06-10T04:32:50;10.35;;;5.60;;
24273;SDS011;12392;42.678;23.380;2023-06-10T04:35:17;6.72;;;4.85;;
24273;SDS011;12392;42.678;23.380;2023-06-10T04:37:42;9.52;;;5.13;;
24273;SDS011;12392;42.678;23.380;2023-06-10T04:40:08;9.90;;;5.43;;
24273;SDS011;12392;42.678;23.380;2023-06-10T04:42:34;8.88;;;5.20;;
24273;SDS011;12392;42.678;23.380;2023-06-10T04:45:00;6.85;;;5.22;;
24273;SDS011;12392;42.678;23.380;2023-06-10T04:47:27;7.80;;;5.38;;
24273;SDS011;12392;42.678;23.380;2023-06-10T04:49:53;8.30;;;5.45;;
24273;SDS011;12392;42.678;23.380;2023-06-10T04:52:19;11.57;;;8.25;;
24273;SDS011;12392;42.678;23.380;2023-06-10T04:54:44;12.30;;;7.78;;
24273;SDS011;12392;42.678;23.380;2023-06-10T04:57:10;13.02;;;8.27;;
24273;SDS011;12392;42.678;23.380;2023-06-10T04:59:36;15.40;;;9.10;;
24273;SDS011;12392;42.678;23.380;2023-06-10T05:02:03;16.63;;;8.02;;
24273;SDS011;12392;42.678;23.380;2023-06-10T05:04:30;13.13;;;7.85;;
24273;SDS011;12392;42.678;23.380;2023-06-10T05:06:55;14.93;;;8.52;;
24273;SDS011;12392;42.678;23.380;2023-06-10T05:09:21;11.25;;;7.70;;
24273;SDS011;12392;42.678;23.380;2023-06-10T05:11:47;10.75;;;8.07;;
24273;SDS011;12392;42.678;23.380;2023-06-10T05:14:13;9.77;;;7.15;;
24273;SDS011;12392;42.678;23.380;2023-06-10T05:16:41;15.65;;;7.38;;
24273;SDS011;12392;42.678;23.380;2023-06-10T05:19:08;8.45;;;6.45;;
24273;SDS011;12392;42.678;23.380;2023-06-10T05:21:33;11.38;;;7.25;;
24273;SDS011;12392;42.678;23.380;2023-06-10T05:23:59;13.25;;;7.65;;
24273;SDS011;12392;42.678;23.380;2023-06-10T05:26:25;13.10;;;7.40;;
24273;SDS011;12392;42.678;23.380;2023-06-10T05:28:51;12.70;;;8.55;;
24273;SDS011;12392;42.678;23.380;2023-06-10T05:31:17;9.55;;;7.88;;
24273;SDS011;12392;42.678;23.380;2023-06-10T05:33:43;12.48;;;8.90;;
24273;SDS011;12392;42.678;23.380;2023-06-10T05:36:09;12.20;;;8.52;;
24273;SDS011;12392;42.678;23.380;2023-06-10T05:38:34;11.18;;;7.97;;
24273;SDS011;12392;42.678;23.380;2023-06-10T05:41:00;14.07;;;8.43;;
24273;SDS011;12392;42.678;23.380;2023-06-10T05:43:26;11.73;;;7.82;;
24273;SDS011;12392;42.678;23.380;2023-06-10T05:45:51;13.27;;;7.55;;
24273;SDS011;12392;42.678;23.380;2023-06-10T05:48:17;9.80;;;7.60;;
24273;SDS011;12392;42.678;23.380;2023-06-10T05:50:44;10.07;;;7.15;;
24273;SDS011;12392;42.678;23.380;2023-06-10T05:53:14;9.63;;;7.25;;
24273;SDS011;12392;42.678;23.380;2023-06-10T05:55:43;10.23;;;7.60;;
24273;SDS011;12392;42.678;23.380;2023-06-10T05:58:10;12.27;;;8.43;;
24273;SDS011;12392;42.678;23.380;2023-06-10T06:00:37;11.73;;;8.10;;
24273;SDS011;12392;42.678;23.380;2023-06-10T06:03:06;11.35;;;7.47;;
24273;SDS011;12392;42.678;23.380;2023-06-10T06:05:33;17.13;;;8.98;;
24273;SDS011;12392;42.678;23.380;2023-06-10T06:08:01;20.67;;;13.77;;
24273;SDS011;12392;42.678;23.380;2023-06-10T06:10:27;18.35;;;12.68;;
24273;SDS011;12392;42.678;23.380;2023-06-10T06:12:52;9.95;;;7.63;;
24273;SDS011;12392;42.678;23.380;2023-06-10T06:15:18;12.05;;;8.48;;
24273;SDS011;12392;42.678;23.380;2023-06-10T06:17:44;15.52;;;8.80;;
24273;SDS011;12392;42.678;23.380;2023-06-10T06:20:09;11.45;;;9.27;;
24273;SDS011;12392;42.678;23.380;2023-06-10T06:22:35;12.57;;;8.98;;
24273;SDS011;12392;42.678;23.380;2023-06-10T06:25:01;10.45;;;8.50;;
24273;SDS011;12392;42.678;23.380;2023-06-10T06:27:27;15.05;;;9.98;;
24273;SDS011;12392;42.678;23.380;2023-06-10T06:29:53;16.10;;;9.23;;
24273;SDS011;12392;42.678;23.380;2023-06-10T06:32:19;15.52;;;8.38;;
24273;SDS011;12392;42.678;23.380;2023-06-10T06:34:45;14.38;;;8.98;;
24273;SDS011;12392;42.678;23.380;2023-06-10T06:37:11;19.67;;;9.63;;
24273;SDS011;12392;42.678;23.380;2023-06-10T06:39:36;16.27;;;8.88;;
24273;SDS011;12392;42.678;23.380;2023-06-10T06:42:02;15.55;;;9.32;;
24273;SDS011;12392;42.678;23.380;2023-06-10T06:44:28;14.10;;;8.60;;
24273;SDS011;12392;42.678;23.380;2023-06-10T06:46:54;15.20;;;8.13;;
24273;SDS011;12392;42.678;23.380;2023-06-10T06:49:19;16.45;;;8.38;;
24273;SDS011;12392;42.678;23.380;2023-06-10T06:51:45;14.88;;;8.90;;
24273;SDS011;12392;42.678;23.380;2023-06-10T06:54:11;14.65;;;7.93;;
24273;SDS011;12392;42.678;23.380;2023-06-10T06:56:37;13.63;;;7.85;;
24273;SDS011;12392;42.678;23.380;2023-06-10T06:59:03;9.68;;;6.85;;
24273;SDS011;12392;42.678;23.380;2023-06-10T07:01:29;14.02;;;7.60;;
24273;SDS011;12392;42.678;23.380;2023-06-10T07:03:55;10.45;;;6.30;;
24273;SDS011;12392;42.678;23.380;2023-06-10T07:06:21;12.38;;;6.30;;
24273;SDS011;12392;42.678;23.380;2023-06-10T07:08:46;10.70;;;6.38;;
24273;SDS011;12392;42.678;23.380;2023-06-10T07:11:14;7.15;;;4.97;;
24273;SDS011;12392;42.678;23.380;2023-06-10T07:13:41;7.60;;;5.72;;
24273;SDS011;12392;42.678;23.380;2023-06-10T07:16:06;8.75;;;5.35;;
24273;SDS011;12392;42.678;23.380;2023-06-10T07:18:32;6.82;;;4.75;;
24273;SDS011;12392;42.678;23.380;2023-06-10T07:20:58;8.70;;;4.70;;
24273;SDS011;12392;42.678;23.380;2023-06-10T07:23:23;6.55;;;4.32;;
24273;SDS011;12392;42.678;23.380;2023-06-10T07:25:49;6.70;;;4.55;;
24273;SDS011;12392;42.678;23.380;2023-06-10T07:28:15;6.28;;;4.60;;
24273;SDS011;12392;42.678;23.380;2023-06-10T07:30:41;8.13;;;4.70;;
24273;SDS011;12392;42.678;23.380;2023-06-10T07:33:07;6.45;;;4.53;;
24273;SDS011;12392;42.678;23.380;2023-06-10T07:35:33;7.15;;;4.28;;
24273;SDS011;12392;42.678;23.380;2023-06-10T07:37:58;7.38;;;3.47;;
24273;SDS011;12392;42.678;23.380;2023-06-10T07:40:24;4.82;;;2.95;;
24273;SDS011;12392;42.678;23.380;2023-06-10T07:42:50;6.75;;;3.45;;
24273;SDS011;12392;42.678;23.380;2023-06-10T07:45:15;7.18;;;3.58;;
24273;SDS011;12392;42.678;23.380;2023-06-10T07:47:42;6.38;;;3.33;;
24273;SDS011;12392;42.678;23.380;2023-06-10T07:50:08;5.53;;;2.92;;
24273;SDS011;12392;42.678;23.380;2023-06-10T07:52:34;3.72;;;3.10;;
24273;SDS011;12392;42.678;23.380;2023-06-10T07:55:00;4.53;;;2.63;;
24273;SDS011;12392;42.678;23.380;2023-06-10T07:57:25;5.15;;;3.30;;
24273;SDS011;12392;42.678;23.380;2023-06-10T07:59:51;3.60;;;3.13;;
24273;SDS011;12392;42.678;23.380;2023-06-10T08:02:17;5.00;;;2.97;;
24273;SDS011;12392;42.678;23.380;2023-06-10T08:04:42;5.00;;;3.15;;
24273;SDS011;12392;42.678;23.380;2023-06-10T08:07:08;4.28;;;3.50;;
24273;SDS011;12392;42.678;23.380;2023-06-10T08:09:34;7.15;;;3.05;;
24273;SDS011;12392;42.678;23.380;2023-06-10T08:11:59;7.30;;;2.55;;
24273;SDS011;12392;42.678;23.380;2023-06-10T08:14:25;4.22;;;3.00;;
24273;SDS011;12392;42.678;23.380;2023-06-10T08:16:51;7.65;;;3.95;;
24273;SDS011;12392;42.678;23.380;2023-06-10T08:19:17;4.88;;;3.75;;
24273;SDS011;12392;42.678;23.380;2023-06-10T08:21:42;4.43;;;3.05;;
24273;SDS011;12392;42.678;23.380;2023-06-10T08:24:09;4.57;;;2.85;;
24273;SDS011;12392;42.678;23.380;2023-06-10T08:26:35;3.90;;;3.08;;
24273;SDS011;12392;42.678;23.380;2023-06-10T08:29:01;4.22;;;2.88;;
24273;SDS011;12392;42.678;23.380;2023-06-10T08:31:26;6.97;;;3.22;;
24273;SDS011;12392;42.678;23.380;2023-06-10T08:33:52;3.40;;;2.78;;
24273;SDS011;12392;42.678;23.380;2023-06-10T08:36:18;5.68;;;3.25;;
24273;SDS011;12392;42.678;23.380;2023-06-10T08:38:43;3.17;;;2.53;;
24273;SDS011;12392;42.678;23.380;2023-06-10T08:41:09;3.10;;;2.67;;
24273;SDS011;12392;42.678;23.380;2023-06-10T08:43:54;5.72;;;2.80;;
24273;SDS011;12392;42.678;23.380;2023-06-10T08:46:46;4.28;;;2.95;;
24273;SDS011;12392;42.678;23.380;2023-06-10T08:49:14;4.32;;;3.13;;
24273;SDS011;12392;42.678;23.380;2023-06-10T08:51:42;6.15;;;2.72;;
24273;SDS011;12392;42.678;23.380;2023-06-10T08:54:11;4.30;;;2.38;;
24273;SDS011;12392;42.678;23.380;2023-06-10T08:56:44;2.38;;;2.10;;
24273;SDS011;12392;42.678;23.380;2023-06-10T08:59:15;2.67;;;2.15;;
24273;SDS011;12392;42.678;23.380;2023-06-10T09:01:44;3.05;;;2.13;;
24273;SDS011;12392;42.678;23.380;2023-06-10T09:04:10;3.00;;;2.60;;
24273;SDS011;12392;42.678;23.380;2023-06-10T09:06:36;2.42;;;2.22;;
24273;SDS011;12392;42.678;23.380;2023-06-10T09:09:03;5.82;;;2.67;;
24273;SDS011;12392;42.678;23.380;2023-06-10T09:11:30;3.47;;;2.70;;
24273;SDS011;12392;42.678;23.380;2023-06-10T09:13:56;4.60;;;2.90;;
24273;SDS011;12392;42.678;23.380;2023-06-10T09:16:22;6.00;;;3.28;;
24273;SDS011;12392;42.678;23.380;2023-06-10T09:18:49;3.50;;;2.60;;
24273;SDS011;12392;42.678;23.380;2023-06-10T09:21:20;2.92;;;2.63;;
24273;SDS011;12392;42.678;23.380;2023-06-10T09:23:48;3.67;;;2.72;;
24273;SDS011;12392;42.678;23.380;2023-06-10T09:26:14;3.40;;;2.38;;
24273;SDS011;12392;42.678;23.380;2023-06-10T09:28:41;4.05;;;2.47;;
24273;SDS011;12392;42.678;23.380;2023-06-10T09:31:12;2.55;;;1.80;;
24273;SDS011;12392;42.678;23.380;2023-06-10T09:33:39;3.22;;;2.28;;
24273;SDS011;12392;42.678;23.380;2023-06-10T09:36:05;3.28;;;2.55;;
24273;SDS011;12392;42.678;23.380;2023-06-10T09:38:31;3.47;;;2.63;;
24273;SDS011;12392;42.678;23.380;2023-06-10T09:40:58;3.85;;;2.97;;
24273;SDS011;12392;42.678;23.380;2023-06-10T09:43:44;3.50;;;2.50;;
24273;SDS011;12392;42.678;23.380;2023-06-10T09:46:17;6.13;;;2.47;;
24273;SDS011;12392;42.678;23.380;2023-06-10T09:48:45;4.18;;;2.42;;
24273;SDS011;12392;42.678;23.380;2023-06-10T09:51:12;4.88;;;2.42;;
24273;SDS011;12392;42.678;23.380;2023-06-10T09:53:38;3.28;;;2.53;;
24273;SDS011;12392;42.678;23.380;2023-06-10T09:56:04;4.32;;;2.92;;
24273;SDS011;12392;42.678;23.380;2023-06-10T09:58:37;4.28;;;2.50;;
24273;SDS011;12392;42.678;23.380;2023-06-10T10:01:08;3.17;;;2.67;;
24273;SDS011;12392;42.678;23.380;2023-06-10T10:03:42;7.07;;;3.05;;
24273;SDS011;12392;42.678;23.380;2023-06-10T10:06:09;6.65;;;2.33;;
24273;SDS011;12392;42.678;23.380;2023-06-10T10:08:34;2.70;;;2.50;;
24273;SDS011;12392;42.678;23.380;2023-06-10T10:11:00;6.07;;;2.80;;
24273;SDS011;12392;42.678;23.380;2023-06-10T10:13:26;4.10;;;2.90;;
24273;SDS011;12392;42.678;23.380;2023-06-10T10:15:53;2.97;;;2.47;;
24273;SDS011;12392;42.678;23.380;2023-06-10T10:18:21;3.15;;;2.85;;
24273;SDS011;12392;42.678;23.380;2023-06-10T10:20:53;4.80;;;2.80;;
24273;SDS011;12392;42.678;23.380;2023-06-10T10:23:31;6.47;;;3.47;;
24273;SDS011;12392;42.678;23.380;2023-06-10T10:26:00;5.63;;;2.72;;
24273;SDS011;12392;42.678;23.380;2023-06-10T10:28:27;3.30;;;2.63;;
24273;SDS011;12392;42.678;23.380;2023-06-10T10:31:02;3.15;;;2.65;;
24273;SDS011;12392;42.678;23.380;2023-06-10T10:33:53;5.47;;;3.08;;
24273;SDS011;12392;42.678;23.380;2023-06-10T10:36:21;4.00;;;2.50;;
24273;SDS011;12392;42.678;23.380;2023-06-10T10:38:47;2.83;;;2.42;;
24273;SDS011;12392;42.678;23.380;2023-06-10T10:41:14;4.80;;;3.05;;
24273;SDS011;12392;42.678;23.380;2023-06-10T10:43:41;4.45;;;2.60;;
24273;SDS011;12392;42.678;23.380;2023-06-10T10:46:11;3.08;;;2.35;;
24273;SDS011;12392;42.678;23.380;2023-06-10T10:48:38;2.63;;;2.42;;
24273;SDS011;12392;42.678;23.380;2023-06-10T10:51:06;6.13;;;2.70;;
24273;SDS011;12392;42.678;23.380;2023-06-10T10:53:32;2.97;;;2.45;;
24273;SDS011;12392;42.678;23.380;2023-06-10T10:55:58;5.72;;;2.97;;
24273;SDS011;12392;42.678;23.380;2023-06-10T10:58:25;3.28;;;2.53;;
24273;SDS011;12392;42.678;23.380;2023-06-10T11:00:51;3.60;;;2.70;;
24273;SDS011;12392;42.678;23.380;2023-06-10T11:03:16;3.17;;;2.70;;
24273;SDS011;12392;42.678;23.380;2023-06-10T11:05:43;4.53;;;2.70;;
24273;SDS011;12392;42.678;23.380;2023-06-10T11:10:54;3.47;;;2.22;;
24273;SDS011;12392;42.678;23.380;2023-06-10T11:13:20;3.47;;;2.50;;
24273;SDS011;12392;42.678;23.380;2023-06-10T11:15:47;4.63;;;3.17;;
24273;SDS011;12392;42.678;23.380;2023-06-10T11:18:20;2.60;;;2.40;;
24273;SDS011;12392;42.678;23.380;2023-06-10T11:20:54;3.20;;;2.55;;
24273;SDS011;12392;42.678;23.380;2023-06-10T11:31:22;5.80;;;2.50;;
24273;SDS011;12392;42.678;23.380;2023-06-10T11:33:53;3.28;;;2.50;;
24273;SDS011;12392;42.678;23.380;2023-06-10T11:36:20;5.00;;;2.53;;
24273;SDS011;12392;42.678;23.380;2023-06-10T11:38:46;3.95;;;2.47;;
24273;SDS011;12392;42.678;23.380;2023-06-10T11:41:13;5.97;;;3.13;;
24273;SDS011;12392;42.678;23.380;2023-06-10T11:43:45;6.05;;;2.53;;
24273;SDS011;12392;42.678;23.380;2023-06-10T11:46:12;4.35;;;2.58;;
24273;SDS011;12392;42.678;23.380;2023-06-10T11:48:51;4.63;;;2.85;;
24273;SDS011;12392;42.678;23.380;2023-06-10T11:51:17;4.20;;;2.70;;
24273;SDS011;12392;42.678;23.380;2023-06-10T11:53:47;3.28;;;2.50;;
24273;SDS011;12392;42.678;23.380;2023-06-10T11:56:13;4.78;;;2.50;;
24273;SDS011;12392;42.678;23.380;2023-06-10T11:58:44;2.80;;;2.42;;
24273;SDS011;12392;42.678;23.380;2023-06-10T12:01:10;2.90;;;2.60;;
24273;SDS011;12392;42.678;23.380;2023-06-10T12:03:36;3.22;;;2.53;;
24273;SDS011;12392;42.678;23.380;2023-06-10T12:06:04;2.42;;;2.10;;
24273;SDS011;12392;42.678;23.380;2023-06-10T12:08:30;2.30;;;2.08;;
24273;SDS011;12392;42.678;23.380;2023-06-10T12:10:56;4.05;;;1.98;;
24273;SDS011;12392;42.678;23.380;2023-06-10T12:13:26;4.93;;;2.40;;
24273;SDS011;12392;42.678;23.380;2023-06-10T12:15:52;4.78;;;2.55;;
24273;SDS011;12392;42.678;23.380;2023-06-10T12:18:19;4.47;;;2.22;;
24273;SDS011;12392;42.678;23.380;2023-06-10T12:20:45;2.80;;;2.50;;
24273;SDS011;12392;42.678;23.380;2023-06-10T12:23:11;5.85;;;2.50;;
24273;SDS011;12392;42.678;23.380;2023-06-10T12:25:37;3.15;;;2.50;;
24273;SDS011;12392;42.678;23.380;2023-06-10T12:28:04;4.72;;;2.30;;
24273;SDS011;12392;42.678;23.380;2023-06-10T12:30:31;2.22;;;2.03;;
24273;SDS011;12392;42.678;23.380;2023-06-10T12:32:57;6.88;;;2.50;;
24273;SDS011;12392;42.678;23.380;2023-06-10T12:35:26;4.18;;;2.92;;
24273;SDS011;12392;42.678;23.380;2023-06-10T12:38:03;2.83;;;2.28;;
24273;SDS011;12392;42.678;23.380;2023-06-10T12:40:32;3.90;;;1.98;;
24273;SDS011;12392;42.678;23.380;2023-06-10T12:43:00;2.92;;;2.17;;
24273;SDS011;12392;42.678;23.380;2023-06-10T12:45:26;4.28;;;2.05;;
24273;SDS011;12392;42.678;23.380;2023-06-10T12:48:03;5.25;;;2.05;;
24273;SDS011;12392;42.678;23.380;2023-06-10T12:50:30;2.38;;;2.17;;
24273;SDS011;12392;42.678;23.380;2023-06-10T12:52:56;3.50;;;1.98;;
24273;SDS011;12392;42.678;23.380;2023-06-10T12:55:22;5.00;;;2.47;;
24273;SDS011;12392;42.678;23.380;2023-06-10T12:57:49;4.72;;;2.22;;
24273;SDS011;12392;42.678;23.380;2023-06-10T13:00:15;2.85;;;2.50;;
24273;SDS011;12392;42.678;23.380;2023-06-10T13:02:43;2.53;;;2.05;;
24273;SDS011;12392;42.678;23.380;2023-06-10T13:05:09;4.15;;;2.08;;
24273;SDS011;12392;42.678;23.380;2023-06-10T13:07:34;4.85;;;2.13;;
24273;SDS011;12392;42.678;23.380;2023-06-10T13:10:00;2.70;;;1.90;;
24273;SDS011;12392;42.678;23.380;2023-06-10T13:12:27;2.95;;;2.20;;
24273;SDS011;12392;42.678;23.380;2023-06-10T13:14:56;5.22;;;2.53;;
24273;SDS011;12392;42.678;23.380;2023-06-10T13:17:21;4.55;;;2.35;;
24273;SDS011;12392;42.678;23.380;2023-06-10T13:19:47;3.70;;;2.50;;
24273;SDS011;12392;42.678;23.380;2023-06-10T13:22:13;2.97;;;2.40;;
24273;SDS011;12392;42.678;23.380;2023-06-10T13:24:39;3.45;;;2.20;;
24273;SDS011;12392;42.678;23.380;2023-06-10T13:27:06;2.95;;;2.25;;
24273;SDS011;12392;42.678;23.380;2023-06-10T13:29:32;2.88;;;2.38;;
24273;SDS011;12392;42.678;23.380;2023-06-10T13:31:57;5.80;;;2.90;;
24273;SDS011;12392;42.678;23.380;2023-06-10T13:34:23;5.70;;;3.00;;
24273;SDS011;12392;42.678;23.380;2023-06-10T13:36:49;4.50;;;2.72;;
24273;SDS011;12392;42.678;23.380;2023-06-10T13:39:14;11.75;;;3.15;;
24273;SDS011;12392;42.678;23.380;2023-06-10T13:41:40;6.30;;;2.92;;
24273;SDS011;12392;42.678;23.380;2023-06-10T13:44:06;4.50;;;3.20;;
24273;SDS011;12392;42.678;23.380;2023-06-10T13:46:32;5.07;;;3.00;;
24273;SDS011;12392;42.678;23.380;2023-06-10T13:48:59;6.68;;;3.90;;
24273;SDS011;12392;42.678;23.380;2023-06-10T13:51:25;7.35;;;3.40;;
24273;SDS011;12392;42.678;23.380;2023-06-10T13:53:51;3.33;;;2.90;;
24273;SDS011;12392;42.678;23.380;2023-06-10T13:56:17;6.30;;;3.28;;
24273;SDS011;12392;42.678;23.380;2023-06-10T13:58:43;4.13;;;2.85;;
24273;SDS011;12392;42.678;23.380;2023-06-10T14:01:10;8.20;;;3.45;;
24273;SDS011;12392;42.678;23.380;2023-06-10T14:03:35;7.90;;;3.58;;
24273;SDS011;12392;42.678;23.380;2023-06-10T14:06:01;9.98;;;3.25;;
24273;SDS011;12392;42.678;23.380;2023-06-10T14:08:27;5.78;;;3.00;;
24273;SDS011;12392;42.678;23.380;2023-06-10T14:10:52;4.45;;;3.40;;
24273;SDS011;12392;42.678;23.380;2023-06-10T14:13:18;5.20;;;3.15;;
24273;SDS011;12392;42.678;23.380;2023-06-10T14:15:44;4.07;;;3.00;;
24273;SDS011;12392;42.678;23.380;2023-06-10T14:18:10;4.85;;;3.63;;
24273;SDS011;12392;42.678;23.380;2023-06-10T14:20:36;3.92;;;3.40;;
24273;SDS011;12392;42.678;23.380;2023-06-10T14:23:01;6.75;;;3.28;;
24273;SDS011;12392;42.678;23.380;2023-06-10T14:25:27;4.82;;;2.85;;
24273;SDS011;12392;42.678;23.380;2023-06-10T14:27:53;3.28;;;2.58;;
24273;SDS011;12392;42.678;23.380;2023-06-10T14:30:19;3.85;;;2.97;;
24273;SDS011;12392;42.678;23.380;2023-06-10T14:32:44;5.05;;;3.03;;
24273;SDS011;12392;42.678;23.380;2023-06-10T14:35:10;3.83;;;2.65;;
24273;SDS011;12392;42.678;23.380;2023-06-10T14:37:36;4.00;;;2.90;;
24273;SDS011;12392;42.678;23.380;2023-06-10T14:40:03;4.63;;;3.35;;